Hope, MN (56046)

9:26 AM CST on November 24, 2014 (GMT -0600)
Lemond Township, Steele County Rd 4 | Change Station
CLOSE
Current Station
Personal Weather Station
Location: Ellendale, MN
Elevation: 1176 ft
Nearby Weather Stations

Elev 1176 ft 43.97 °N, 93.37 °W | Updated 1 second ago

Overcast
Overcast
18.9 °F
Feels Like 2 °F
N
21.0
Wind Variable Wind from NNW
Gusts 26.0 mph

Today
High -- | Low -- °F
--% Chance of Precip.
Yesterday
High -- | Low -- °F
Precip. -- in
7:19 AM 4:40 PM
Waxing Crescent, 5% visible
Pressure 29.42 in
Visibility 10.0 miles
Clouds Overcast 1200 ft
Windchill 2 °F
Dew Point 16 °F
Humidity 90%
Rainfall 0.00 in
Snow Depth Not available.
UV 0 out of 12
Pollen .10 out of 12
Air Quality Not available.
Flu Activity Not available.
METAR KOWA 241515Z AUTO 29017KT 10SM OVC012 M06/M08 A2942 RMK AO2

More Conditions Fewer Conditions

Pressure 29.42 in
Visibility 10.0 miles
Clouds Overcast 1200 ft
Windchill 2 °F
Dew Point 16 °F
Humidity 90%
Rainfall 0.00 in
Snow Depth Not available.
UV 0 out of 12
Pollen .10 out of 12
Air Quality Not available.
Flu Activity Not available.
METAR KOWA 241515Z AUTO 29017KT 10SM OVC012 M06/M08 A2942 RMK AO2

More Conditions Fewer Conditions

Nowcast | as of 9:19 am CST on November 24, 2014

Brisk northwest winds and periods of light snow will continue this morning...with falling temperatures. Blowing and drifting snow will become more common as well as winds increase.

×

10-Day Weather Forecast

Almanac

Astronomy

Nov. 24, 2014 Rise Set
Actual Time
Civil Twilight
Nautical Twilight
Astronomical Twilight
Moon
Length of Visible Light
Length of Day
Tomorrow will be .
, % of the Moon is Illuminated

Today's Extremes

State Highs State Lows

Community

WunderPhotos

Upload Photos

1,773,359 photos uploaded!

WunderBlogs® & News

Nearby

Air Quality

  Air Quality AQ Index Pollutant
Not available.

Snow Depth

Station Depth Elevation

Earthquake Activity

City Distance Mag. Time & Date
Minimum magnitude displayed is 2.5.

Coastal Water Temperatures

Place Temperature

Nearby Weather Stations